Time;durP1;ratioP1;P1;durP2;ratioP2;P2;SDS_P1;SDS_P2;PMS_P1;PMS_P2;Temp;Humidity;BMP_temperature;BMP_pressure;BME280_temperature;BME280_humidity;BME280_pressure;Samples;Min_cycle;Max_cycle;Signal;HPM_P1;HPM_P2
2022/04/14 00:01:52;;;;;;;40.40;22.48;;;;;;;6.53;54.80;101477.91;4995743;28;20078;-60
2022/04/14 00:04:22;;;;;;;39.95;22.30;;;;;;;6.50;55.18;101480.44;4992873;28;20054;-60
2022/04/14 00:06:52;;;;;;;43.38;23.38;;;;;;;6.44;55.15;101475.16;4996204;28;20050;-60
2022/04/14 00:09:20;;;;;;;41.28;22.15;;;;;;;6.41;54.96;101480.25;4995952;28;20089;-60
2022/04/14 00:11:47;;;;;;;50.85;23.00;;;;;;;6.39;55.42;101474.19;4996179;28;20054;-60
2022/04/14 00:14:15;;;;;;;39.00;22.05;;;;;;;6.35;55.24;101474.97;4996072;28;20061;-60
2022/04/14 00:16:50;;;;;;;41.15;22.27;;;;;;;6.36;55.14;101471.56;4995394;28;20054;-60
2022/04/14 00:19:18;;;;;;;43.20;21.70;;;;;;;6.35;55.03;101467.25;4995356;28;20054;-59
2022/04/14 00:21:48;;;;;;;39.00;21.52;;;;;;;6.33;55.25;101460.34;4995384;28;20062;-60
2022/04/14 00:24:16;;;;;;;39.38;20.63;;;;;;;6.35;55.34;101459.53;4995845;28;20055;-59
2022/04/14 00:26:44;;;;;;;40.83;20.48;;;;;;;6.36;55.37;101461.25;4995544;28;20051;-60
2022/04/14 00:29:12;;;;;;;40.00;20.52;;;;;;;6.37;55.17;101452.69;4995823;28;20058;-60
2022/04/14 00:31:40;;;;;;;43.08;21.67;;;;;;;6.34;55.68;101450.94;4987132;28;20047;-60
2022/04/14 00:34:15;;;;;;;38.80;19.48;;;;;;;6.35;55.69;101449.22;4985763;28;20057;-59
2022/04/14 00:36:43;;;;;;;33.93;18.30;;;;;;;6.38;55.21;101446.69;4995496;28;20479;-59
2022/04/14 00:39:10;;;;;;;38.17;19.35;;;;;;;6.40;55.05;101442.44;4995495;28;20065;-60
2022/04/14 00:41:38;;;;;;;35.67;20.05;;;;;;;6.42;55.00;101440.78;4995219;28;20070;-60
2022/04/14 00:44:07;;;;;;;38.95;19.48;;;;;;;6.41;55.23;101441.63;4995538;28;20387;-59
2022/04/14 00:46:35;;;;;;;37.45;19.55;;;;;;;6.43;55.65;101442.50;4994607;28;20431;-59
2022/04/14 00:49:06;;;;;;;33.90;19.13;;;;;;;6.46;55.07;101442.56;4995104;28;20058;-59
2022/04/14 00:51:35;;;;;;;36.97;20.20;;;;;;;6.47;55.55;101439.16;4994895;28;20081;-60
2022/04/14 00:54:02;;;;;;;36.90;19.63;;;;;;;6.50;55.48;101439.22;4994706;28;20054;-58
2022/04/14 00:56:30;;;;;;;38.70;21.40;;;;;;;6.50;55.59;101428.91;4994549;28;20061;-60
2022/04/14 00:58:58;;;;;;;37.72;20.63;;;;;;;6.54;55.60;101428.13;4994870;28;20046;-60
2022/04/14 01:01:25;;;;;;;36.30;18.83;;;;;;;6.58;55.52;101427.34;4992982;28;20061;-60
2022/04/14 01:03:54;;;;;;;34.22;18.75;;;;;;;6.61;55.28;101428.28;4985847;28;20061;-60
2022/04/14 01:06:23;;;;;;;35.65;19.05;;;;;;;6.66;55.23;101423.19;4994645;28;20061;-59
2022/04/14 01:11:40;;;;;;;35.80;18.40;;;;;;;6.76;54.66;101416.50;4994422;28;20120;-60
2022/04/14 01:14:08;;;;;;;36.72;19.08;;;;;;;6.81;54.58;101415.78;4993648;28;20050;-60
2022/04/14 01:16:36;;;;;;;33.25;19.27;;;;;;;6.85;54.54;101417.56;4994147;28;20439;-59
2022/04/14 01:19:03;;;;;;;36.10;18.33;;;;;;;6.88;54.30;101412.47;4994604;28;20061;-56
2022/04/14 01:21:33;;;;;;;37.67;20.25;;;;;;;6.90;54.50;101413.34;4994428;28;20064;-60
2022/04/14 01:24:02;;;;;;;41.97;20.73;;;;;;;6.94;54.41;101403.97;4994472;28;20477;-59
2022/04/14 01:26:31;;;;;;;32.38;18.23;;;;;;;6.95;54.03;101409.16;4994251;28;20082;-60
2022/04/14 01:28:59;;;;;;;38.80;19.77;;;;;;;6.95;54.05;101404.00;4994574;28;20058;-59
2022/04/14 01:31:26;;;;;;;41.45;20.40;;;;;;;6.95;53.95;101409.16;4994346;28;20054;-58
2022/04/14 01:33:55;;;;;;;38.17;20.13;;;;;;;6.94;54.13;101399.69;4994218;28;20058;-59
2022/04/14 01:36:23;;;;;;;36.05;20.05;;;;;;;6.93;54.20;101397.06;4994093;28;20058;-60
2022/04/14 01:38:51;;;;;;;36.45;19.80;;;;;;;6.92;54.26;101400.50;4994128;28;20050;-60
2022/04/14 01:41:22;;;;;;;39.03;20.77;;;;;;;6.90;54.38;101391.88;4993992;28;20057;-60
2022/04/14 01:43:50;;;;;;;36.08;19.30;;;;;;;6.87;54.25;101391.81;4994206;28;20732;-60
2022/04/14 01:46:17;;;;;;;35.10;19.40;;;;;;;6.87;54.38;101384.09;4994009;28;20050;-60
2022/04/14 01:48:47;;;;;;;38.95;19.70;;;;;;;6.83;54.34;101383.16;4994202;28;20049;-59
2022/04/14 01:51:14;;;;;;;40.13;20.15;;;;;;;6.80;54.45;101382.25;4993896;28;20128;-59
2022/04/14 01:53:42;;;;;;;36.35;20.33;;;;;;;6.75;54.85;101383.84;4994263;28;20046;-59
2022/04/14 01:56:09;;;;;;;35.95;19.92;;;;;;;6.71;54.97;101377.78;4994062;28;20054;-59
2022/04/14 01:58:39;;;;;;;40.25;21.30;;;;;;;6.67;55.04;101370.84;4994155;28;20093;-58
2022/04/14 02:01:06;;;;;;;39.97;21.30;;;;;;;6.62;54.78;101365.59;4994290;28;20062;-59
2022/04/14 02:03:34;;;;;;;41.50;21.63;;;;;;;6.59;55.35;101362.09;4993982;28;20054;-60
2022/04/14 02:06:01;;;;;;;33.30;19.05;;;;;;;6.55;54.93;101360.31;4993617;28;20699;-60
2022/04/14 02:08:29;;;;;;;35.90;20.00;;;;;;;6.52;55.24;101366.28;4993918;28;20054;-60
2022/04/14 02:10:57;;;;;;;35.53;20.25;;;;;;;6.52;55.50;101357.69;4993400;28;20069;-59
2022/04/14 02:13:25;;;;;;;37.22;19.95;;;;;;;6.45;55.28;101359.28;4993555;28;20058;-59
2022/04/14 02:15:55;;;;;;;36.22;19.83;;;;;;;6.40;55.83;101360.03;4993069;28;20061;-59
2022/04/14 02:18:23;;;;;;;37.70;20.30;;;;;;;6.29;55.95;101355.56;4993166;28;20090;-58
2022/04/14 02:20:51;;;;;;;40.03;21.00;;;;;;;6.25;56.07;101351.19;4993424;28;20061;-58
2022/04/14 02:23:21;;;;;;;34.70;20.30;;;;;;;6.22;56.06;101350.25;4973576;28;20338;-59
2022/04/14 02:25:49;;;;;;;34.55;18.38;;;;;;;6.17;56.61;101352.72;4984823;28;20050;-55
2022/04/14 02:28:17;;;;;;;37.30;20.27;;;;;;;6.14;56.55;101347.53;4997540;28;20054;-59
2022/04/14 02:30:44;;;;;;;40.35;20.83;;;;;;;6.11;56.48;101338.88;4997309;28;20054;-60
2022/04/14 02:33:21;;;;;;;35.85;18.30;;;;;;;6.07;56.47;101345.66;4997152;28;20066;-60
2022/04/14 02:35:51;;;;;;;35.58;19.13;;;;;;;6.04;57.26;101337.88;4996978;28;20043;-59
2022/04/14 02:38:18;;;;;;;36.00;18.13;;;;;;;6.01;56.71;101335.25;4977679;28;20144;-59
2022/04/14 02:40:46;;;;;;;32.95;19.00;;;;;;;5.98;56.77;101336.06;4977662;28;20360;-60
2022/04/14 02:43:13;;;;;;;32.78;17.42;;;;;;;5.95;57.15;101335.13;4977957;28;20055;-59
2022/04/14 02:45:41;;;;;;;36.72;18.75;;;;;;;5.91;57.33;101328.19;4992249;28;20061;-60
2022/04/14 02:48:08;;;;;;;33.22;17.65;;;;;;;5.89;57.31;101334.97;4997462;28;20061;-58
2022/04/14 02:50:38;;;;;;;38.53;18.20;;;;;;;5.88;58.03;101331.53;4997345;28;20062;-59
2022/04/14 02:53:06;;;;;;;38.70;19.50;;;;;;;5.84;57.49;101321.16;4980554;28;20085;-59
2022/04/14 02:55:34;;;;;;;34.42;17.90;;;;;;;5.81;57.67;101331.41;4994376;28;20062;-57
2022/04/14 02:58:01;;;;;;;40.38;18.85;;;;;;;5.80;57.58;101324.50;4997380;28;20061;-60
2022/04/14 03:00:30;;;;;;;34.55;17.08;;;;;;;5.78;57.63;101323.63;4996672;28;20058;-59
2022/04/14 03:02:59;;;;;;;35.00;15.52;;;;;;;5.78;57.71;101321.03;4996361;28;20422;-59
2022/04/14 03:05:27;;;;;;;30.85;15.77;;;;;;;5.79;57.59;101323.63;4997116;28;20061;-60
2022/04/14 03:07:56;;;;;;;29.20;15.57;;;;;;;5.81;58.04;101326.25;4996854;28;20057;-59
2022/04/14 03:10:24;;;;;;;27.65;15.85;;;;;;;5.82;57.87;101334.00;4996708;28;20467;-59
2022/04/14 03:12:54;;;;;;;32.15;15.65;;;;;;;5.83;57.85;101329.72;4996986;28;20126;-59
2022/04/14 03:15:22;;;;;;;27.45;16.25;;;;;;;5.86;57.92;101332.34;4997090;28;20078;-59
2022/04/14 03:17:50;;;;;;;30.75;14.98;;;;;;;5.89;57.45;101332.41;4996479;28;20058;-58
2022/04/14 03:20:18;;;;;;;31.92;15.50;;;;;;;5.92;57.11;101340.22;4996763;28;20723;-60
2022/04/14 03:22:46;;;;;;;32.85;16.13;;;;;;;5.93;57.58;101336.81;4996546;28;20050;-60
2022/04/14 03:25:17;;;;;;;29.08;15.70;;;;;;;5.96;57.47;101331.72;4996709;28;20054;-59
2022/04/14 03:27:45;;;;;;;28.23;14.75;;;;;;;5.97;57.48;101339.47;4996763;28;20074;-59
2022/04/14 03:30:13;;;;;;;30.10;14.82;;;;;;;5.98;57.29;101330.91;4996552;28;20050;-59
2022/04/14 03:32:45;;;;;;;28.48;15.32;;;;;;;5.99;57.35;101329.22;4996131;28;20061;-60
2022/04/14 03:35:14;;;;;;;30.73;14.80;;;;;;;6.00;57.82;101328.38;4996065;28;20065;-59
2022/04/14 03:37:42;;;;;;;29.52;14.98;;;;;;;6.00;57.69;101320.66;4994694;28;20047;-60
2022/04/14 03:40:11;;;;;;;27.80;14.00;;;;;;;6.02;57.31;101321.56;4995572;28;20145;-58
2022/04/14 03:42:40;;;;;;;28.70;14.43;;;;;;;6.02;57.10;101321.56;4995909;28;20057;-59
2022/04/14 03:45:09;;;;;;;25.60;14.02;;;;;;;6.03;57.46;101318.13;4996105;28;20060;-59
2022/04/14 03:47:37;;;;;;;26.15;12.68;;;;;;;6.05;56.81;101310.44;4992899;28;20042;-60
2022/04/14 03:50:05;;;;;;;29.67;14.13;;;;;;;6.03;57.12;101304.41;4977065;28;20051;-59
2022/04/14 03:52:33;;;;;;;32.35;15.50;;;;;;;6.03;57.37;101305.28;4976806;28;20062;-59
2022/04/14 03:55:03;;;;;;;25.80;14.13;;;;;;;6.02;57.71;101303.53;4988776;28;20050;-59
2022/04/14 03:57:31;;;;;;;27.02;14.80;;;;;;;6.01;57.25;101304.38;4996086;28;20046;-59
2022/04/14 04:00:00;;;;;;;28.70;16.52;;;;;;;5.98;57.70;101300.03;4996315;28;20069;-59
2022/04/14 04:02:27;;;;;;;32.17;17.48;;;;;;;5.96;58.08;101299.13;4996076;28;20058;-59
2022/04/14 04:04:54;;;;;;;34.03;17.15;;;;;;;5.93;57.81;101305.94;4996125;28;20073;-59
2022/04/14 04:07:22;;;;;;;34.30;17.50;;;;;;;5.91;57.92;101297.31;4995693;28;20735;-60
2022/04/14 04:09:50;;;;;;;31.08;17.23;;;;;;;5.87;58.39;101295.50;4996432;28;20062;-59
2022/04/14 04:12:19;;;;;;;30.23;16.45;;;;;;;5.86;58.14;101288.59;4996118;28;20062;-59
2022/04/14 04:14:48;;;;;;;28.42;16.25;;;;;;;5.88;58.02;101292.09;4995554;28;20491;-58
2022/04/14 04:17:17;;;;;;;27.55;16.30;;;;;;;5.88;58.96;101292.09;4995871;28;20068;-59
2022/04/14 04:19:45;;;;;;;33.42;16.58;;;;;;;5.90;58.91;101290.44;4995529;28;20431;-59
2022/04/14 04:22:13;;;;;;;30.55;16.75;;;;;;;5.93;58.58;101287.91;4995937;28;20133;-59
2022/04/14 04:24:41;;;;;;;34.22;15.88;;;;;;;5.94;59.05;101292.22;4995550;28;20069;-59
2022/04/14 04:27:10;;;;;;;32.72;16.10;;;;;;;6.00;59.07;101287.19;4995798;28;20061;-59
2022/04/14 04:29:40;;;;;;;31.33;16.63;;;;;;;6.03;58.61;101282.09;4995712;28;20077;-59
2022/04/14 04:32:09;;;;;;;32.03;17.25;;;;;;;6.05;59.61;101279.56;4995793;28;20046;-59
2022/04/14 04:34:38;;;;;;;32.20;16.63;;;;;;;6.11;59.08;101274.53;4995411;28;20503;-59
2022/04/14 04:37:08;;;;;;;31.10;16.13;;;;;;;6.17;59.03;101272.94;4995590;28;20046;-59
2022/04/14 04:39:35;;;;;;;27.55;15.50;;;;;;;6.26;58.84;101275.69;4996099;28;20081;-59
2022/04/14 04:42:03;;;;;;;26.45;14.60;;;;;;;6.35;58.16;101276.69;4995720;28;20096;-58
2022/04/14 04:44:33;;;;;;;27.65;13.93;;;;;;;6.43;58.37;101272.53;4995175;28;20061;-59
2022/04/14 04:47:01;;;;;;;38.15;15.88;;;;;;;6.56;57.78;101272.75;4995776;28;20047;-60
2022/04/14 04:49:29;;;;;;;29.20;13.88;;;;;;;6.67;57.83;101278.09;4994900;28;20391;-60
2022/04/14 04:52:00;;;;;;;25.70;14.43;;;;;;;6.76;57.21;101275.66;4995465;28;20054;-60
2022/04/14 04:54:28;;;;;;;22.17;12.57;;;;;;;6.83;56.90;101274.94;4995464;28;20090;-59
2022/04/14 04:56:56;;;;;;;33.78;15.23;;;;;;;6.91;56.47;101268.19;4995404;28;20046;-59
2022/04/14 04:59:23;;;;;;;31.30;14.57;;;;;;;6.99;56.75;101268.28;4995357;28;20058;-60
2022/04/14 05:01:51;;;;;;;26.52;12.50;;;;;;;7.06;56.03;101264.97;4995339;28;20383;-59
2022/04/14 05:04:19;;;;;;;29.85;14.38;;;;;;;7.13;55.69;101273.63;4994956;28;20521;-57
2022/04/14 05:06:47;;;;;;;24.02;11.98;;;;;;;7.22;55.56;101260.88;4995332;28;20069;-60
2022/04/14 05:09:17;;;;;;;27.40;12.90;;;;;;;7.36;55.02;101261.09;4994711;28;20396;-59
2022/04/14 05:11:47;;;;;;;27.27;14.13;;;;;;;7.46;54.46;101258.63;4995143;28;20085;-60
2022/04/14 05:14:15;;;;;;;21.15;12.65;;;;;;;7.60;54.28;101248.47;4994795;28;20058;-60
2022/04/14 05:16:42;;;;;;;24.00;13.23;;;;;;;7.74;53.56;101249.50;4994266;28;20078;-59
2022/04/14 05:19:10;;;;;;;20.30;12.00;;;;;;;7.91;52.93;101247.13;4994462;28;20058;-60
2022/04/14 05:21:38;;;;;;;24.10;12.82;;;;;;;8.09;52.73;101247.31;4994343;28;20058;-60
2022/04/14 05:24:06;;;;;;;24.58;13.05;;;;;;;8.32;52.11;101241.50;4994637;28;20050;-60
2022/04/14 05:26:39;;;;;;;25.63;13.23;;;;;;;8.57;51.78;101240.91;4993594;28;20523;-60
2022/04/14 05:29:07;;;;;;;21.67;12.90;;;;;;;8.84;51.22;101230.78;4994529;28;20061;-59
2022/04/14 05:31:35;;;;;;;24.33;13.88;;;;;;;9.16;50.18;101227.50;4994449;28;20113;-60
2022/04/14 05:34:01;;;;;;;23.27;12.85;;;;;;;9.49;49.00;101227.69;4994154;28;20050;-60
2022/04/14 05:36:29;;;;;;;27.70;14.02;;;;;;;9.88;48.38;101226.06;4993578;28;20069;-60
2022/04/14 05:38:57;;;;;;;28.75;13.93;;;;;;;10.27;47.72;101222.72;4994520;28;20057;-60
2022/04/14 05:41:25;;;;;;;27.65;14.50;;;;;;;10.63;46.49;101224.44;4993696;28;20460;-60
2022/04/14 05:43:55;;;;;;;30.38;14.32;;;;;;;11.02;45.39;101222.69;4994162;28;20066;-60
2022/04/14 05:46:22;;;;;;;28.45;14.55;;;;;;;11.44;45.35;101215.59;4993845;28;20446;-60
2022/04/14 05:48:51;;;;;;;26.83;14.27;;;;;;;11.87;44.53;101216.28;4994422;28;20058;-60
2022/04/14 05:51:20;;;;;;;25.92;14.45;;;;;;;12.29;43.49;101215.16;4994137;28;20594;-59
2022/04/14 05:53:49;;;;;;;29.45;14.50;;;;;;;12.78;42.71;101219.94;4994397;28;20153;-59
2022/04/14 05:56:16;;;;;;;24.02;14.20;;;;;;;13.25;41.39;101217.75;4981330;28;20078;-57
2022/04/14 05:58:43;;;;;;;19.05;12.15;;;;;;;13.63;40.32;101220.75;4991165;28;20050;-53
2022/04/14 06:01:11;;;;;;;25.50;14.00;;;;;;;14.08;39.21;101217.53;4994989;28;20472;-56
2022/04/14 06:03:38;;;;;;;26.17;13.85;;;;;;;14.49;38.76;101219.50;4993989;28;20058;-62
2022/04/14 06:06:05;;;;;;;23.40;13.63;;;;;;;14.90;38.02;101225.75;4994212;28;20113;-62
2022/04/14 06:08:31;;;;;;;19.98;13.63;;;;;;;15.30;37.79;101219.78;4993825;28;20054;-62
2022/04/14 06:10:58;;;;;;;26.23;14.63;;;;;;;15.72;36.85;101212.84;4993796;28;20057;-62
2022/04/14 06:13:24;;;;;;;24.25;13.98;;;;;;;16.15;36.06;101207.50;4994014;28;20057;-59
2022/04/14 06:15:51;;;;;;;22.75;15.60;;;;;;;16.55;35.36;101211.75;4993433;28;20455;-58
2022/04/14 06:18:18;;;;;;;18.75;13.75;;;;;;;16.95;34.79;101212.47;4993307;28;20053;-53
2022/04/14 06:20:47;;;;;;;21.55;15.07;;;;;;;17.38;33.50;101200.78;4992768;28;20460;-56
2022/04/14 06:23:16;;;;;;;25.10;15.18;;;;;;;17.60;32.64;101201.88;4992323;28;20054;-59
2022/04/14 06:25:45;;;;;;;25.05;14.27;;;;;;;17.76;32.50;101197.06;4992719;28;20057;-59
2022/04/14 06:28:11;;;;;;;23.45;14.48;;;;;;;18.00;32.57;101198.06;4984718;28;20456;-57
2022/04/14 06:30:38;;;;;;;29.98;16.13;;;;;;;18.19;31.76;101196.56;4992260;28;20379;-58
2022/04/14 06:33:05;;;;;;;25.63;14.23;;;;;;;18.45;31.77;101189.63;4992897;28;20109;-59
2022/04/14 06:35:33;;;;;;;28.88;15.05;;;;;;;18.68;30.71;101189.72;4993051;28;20062;-58
2022/04/14 06:38:00;;;;;;;24.90;15.05;;;;;;;18.95;31.05;101182.66;4992979;28;20050;-59
2022/04/14 06:40:27;;;;;;;22.27;14.23;;;;;;;19.22;30.56;101178.16;4992861;28;20057;-59
2022/04/14 06:42:53;;;;;;;22.85;14.10;;;;;;;19.53;30.18;101186.66;4976844;28;20057;-57
2022/04/14 06:45:19;;;;;;;26.90;15.10;;;;;;;19.71;29.73;101178.94;4992802;28;20050;-56
2022/04/14 06:47:46;;;;;;;22.55;15.32;;;;;;;20.05;29.34;101183.75;4993110;28;20470;-56
2022/04/14 06:50:13;;;;;;;24.92;14.32;;;;;;;20.27;28.82;101192.47;4992547;28;20061;-57
2022/04/14 06:52:41;;;;;;;19.73;13.50;;;;;;;20.62;28.90;101198.09;4992979;28;20050;-58
2022/04/14 06:55:08;;;;;;;23.13;14.40;;;;;;;21.00;28.49;101196.44;4992494;28;20448;-58
2022/04/14 06:57:35;;;;;;;23.02;14.70;;;;;;;21.34;27.98;101191.41;4992874;28;20053;-59
2022/04/14 07:00:02;;;;;;;22.20;13.80;;;;;;;21.56;27.65;101195.69;4992525;28;20138;-58
2022/04/14 07:02:31;;;;;;;22.52;15.50;;;;;;;21.74;26.79;101197.44;4992893;28;20061;-58
2022/04/14 07:04:57;;;;;;;22.55;15.07;;;;;;;21.80;26.77;101183.97;4977380;28;20141;-59
2022/04/14 07:07:24;;;;;;;23.25;14.38;;;;;;;22.02;26.61;101189.94;4992958;28;20046;-58
2022/04/14 07:09:51;;;;;;;22.05;14.70;;;;;;;22.29;26.04;101192.16;4990837;28;20054;-58
2022/04/14 07:12:18;;;;;;;23.25;14.43;;;;;;;22.36;25.99;101189.13;4988775;28;20051;-58
2022/04/14 07:14:44;;;;;;;20.95;13.98;;;;;;;22.65;25.73;101185.03;4988624;28;20061;-58
2022/04/14 07:17:11;;;;;;;23.75;14.30;;;;;;;22.90;25.49;101184.69;4992153;28;20062;-58
2022/04/14 07:19:37;;;;;;;20.67;14.70;;;;;;;23.17;25.19;101177.06;4990951;28;20085;-60
2022/04/14 07:22:04;;;;;;;21.55;13.93;;;;;;;23.37;24.91;101173.31;4986101;28;20129;-60
2022/04/14 07:24:31;;;;;;;23.65;13.60;;;;;;;23.74;24.81;101169.53;4987029;28;20057;-60
2022/04/14 07:26:59;;;;;;;23.55;14.10;;;;;;;24.00;24.42;101177.81;4988386;28;20061;-60
2022/04/14 07:29:25;;;;;;;22.25;14.52;;;;;;;24.00;24.27;101170.72;4983922;28;20054;-59
2022/04/14 07:31:52;;;;;;;20.20;13.98;;;;;;;24.10;24.18;101179.00;4979622;28;20077;-56
2022/04/14 07:34:19;;;;;;;28.02;13.93;;;;;;;24.48;23.85;101177.66;4979208;28;20133;-64
2022/04/14 07:36:45;;;;;;;21.25;13.50;;;;;;;24.68;23.35;101175.59;4995073;28;20046;-64
2022/04/14 07:39:12;;;;;;;21.60;13.30;;;;;;;24.82;23.13;101172.97;4987936;28;20054;-63
2022/04/14 07:41:38;;;;;;;25.92;13.18;;;;;;;24.97;23.54;101177.31;4996425;28;20065;-63
2022/04/14 07:44:06;;;;;;;27.33;13.85;;;;;;;25.27;23.33;101168.47;4988081;28;20051;-60
2022/04/14 07:46:35;;;;;;;32.58;15.27;;;;;;;25.09;23.03;101171.31;4995834;28;20054;-60
2022/04/14 07:49:02;;;;;;;32.63;12.85;;;;;;;24.97;23.16;101161.41;4990251;28;20050;-60
2022/04/14 07:51:28;;;;;;;22.75;12.75;;;;;;;25.10;23.49;101162.41;4993549;28;20054;-61
2022/04/14 07:53:55;;;;;;;18.88;12.30;;;;;;;25.20;23.56;101159.19;4995105;28;20043;-61
2022/04/14 07:56:22;;;;;;;20.73;14.32;;;;;;;25.31;22.84;101154.06;4989853;28;20047;-60
2022/04/14 07:58:48;;;;;;;21.83;14.90;;;;;;;25.11;22.83;101150.84;4994927;28;20475;-59
2022/04/14 08:01:18;;;;;;;25.60;14.23;;;;;;;24.91;22.86;101150.31;4996479;28;20053;-57
2022/04/14 08:03:46;;;;;;;18.40;13.10;;;;;;;24.92;23.03;101147.59;4995339;28;20121;-58
2022/04/14 08:06:13;;;;;;;19.45;13.00;;;;;;;24.85;23.19;101154.22;4995211;28;20066;-58
2022/04/14 08:08:40;;;;;;;22.67;13.43;;;;;;;24.68;23.18;101151.75;4995511;28;20076;-57
2022/04/14 08:11:09;;;;;;;24.35;14.70;;;;;;;24.65;23.24;101154.59;4995350;28;20054;-56
2022/04/14 08:13:38;;;;;;;22.02;14.95;;;;;;;24.42;23.50;101158.59;4995278;28;20061;-60
2022/04/14 08:16:06;;;;;;;23.92;14.45;;;;;;;24.21;23.39;101150.09;4994903;28;20054;-61
2022/04/14 08:18:36;;;;;;;24.27;15.38;;;;;;;24.15;23.70;101150.44;4995179;28;20161;-61
2022/04/14 08:21:03;;;;;;;24.52;15.05;;;;;;;23.92;23.82;101149.94;5007998;28;20058;-56
2022/04/14 08:23:30;;;;;;;24.38;15.10;;;;;;;23.68;24.09;101151.38;4994469;28;20050;-59
2022/04/14 08:25:57;;;;;;;24.48;15.85;;;;;;;23.37;24.37;101151.31;4989001;28;20057;-57
2022/04/14 08:28:24;;;;;;;27.30;16.65;;;;;;;23.15;24.54;101146.34;4983611;28;20057;-56
2022/04/14 08:30:51;;;;;;;24.85;15.77;;;;;;;22.81;24.88;101147.28;4986580;28;20672;-57
2022/04/14 08:33:20;;;;;;;28.65;16.23;;;;;;;22.59;25.23;101153.66;4987823;28;20126;-57
2022/04/14 08:35:49;;;;;;;24.58;16.80;;;;;;;22.18;25.77;101146.97;4994987;28;20116;-58
2022/04/14 08:38:16;;;;;;;29.27;15.77;;;;;;;21.93;26.22;101147.31;4994580;28;20078;-60
2022/04/14 08:40:45;;;;;;;25.63;16.23;;;;;;;21.73;26.36;101145.59;4994714;28;20058;-53
2022/04/14 08:43:11;;;;;;;23.95;15.20;;;;;;;21.64;26.62;101140.78;4994938;28;20058;-60
2022/04/14 08:45:45;;;;;;;27.02;16.98;;;;;;;21.50;27.13;101140.59;4994297;28;20416;-62
2022/04/14 08:48:13;;;;;;;25.73;16.15;;;;;;;21.38;27.43;101145.50;4994707;28;20046;-63
2022/04/14 08:50:39;;;;;;;23.05;14.63;;;;;;;21.31;27.37;101146.69;4991500;28;20153;-61
2022/04/14 08:53:09;;;;;;;28.35;15.73;;;;;;;21.29;27.43;101145.91;4989856;28;20057;-58
2022/04/14 08:55:39;;;;;;;25.52;15.80;;;;;;;21.21;27.56;101148.00;4994483;28;20061;-60
2022/04/14 08:58:07;;;;;;;24.15;15.10;;;;;;;21.24;27.61;101144.41;4994102;28;20054;-57
2022/04/14 09:00:33;;;;;;;26.60;15.85;;;;;;;21.28;27.75;101149.47;4994020;28;20387;-57
2022/04/14 09:03:01;;;;;;;26.77;15.45;;;;;;;21.32;27.77;101148.41;4994289;28;20058;-53
2022/04/14 09:05:27;;;;;;;28.15;15.75;;;;;;;21.26;27.87;101146.06;4994594;28;20053;-59
2022/04/14 09:07:53;;;;;;;27.98;16.38;;;;;;;21.19;28.24;101144.59;4994134;28;20054;-57
2022/04/14 09:10:22;;;;;;;28.50;17.13;;;;;;;21.21;28.40;101148.00;4984433;28;20050;-58
2022/04/14 09:12:49;;;;;;;26.13;14.85;;;;;;;21.25;28.20;101146.97;4991253;28;20146;-57
2022/04/14 09:15:16;;;;;;;25.67;16.58;;;;;;;21.33;28.44;101142.22;4990416;28;20050;-58
2022/04/14 09:17:43;;;;;;;26.33;16.95;;;;;;;21.29;28.37;101151.19;4992451;28;20138;-57
2022/04/14 09:20:28;;;;;;;25.80;16.17;;;;;;;21.28;28.53;101149.47;4991229;28;20062;-57
2022/04/14 09:23:18;;;;;;;24.02;16.77;;;;;;;21.25;28.33;101144.34;4990410;28;20167;-57
2022/04/14 09:25:47;;;;;;;25.52;17.27;;;;;;;21.24;28.56;101147.91;4993443;28;20349;-58
2022/04/14 09:28:15;;;;;;;26.80;16.52;;;;;;;21.19;28.75;101144.59;4993813;28;20133;-52
2022/04/14 09:30:58;;;;;;;27.55;16.33;;;;;;;21.22;28.70;101144.44;4993825;28;20058;-55
2022/04/14 09:33:25;;;;;;;31.58;16.33;;;;;;;21.30;28.87;101142.34;4993606;28;20054;-51
2022/04/14 09:36:07;;;;;;;27.23;17.48;;;;;;;21.29;28.46;101143.28;4992751;28;20062;-55
2022/04/14 09:38:55;;;;;;;26.45;16.60;;;;;;;21.36;28.76;101147.38;4993677;28;20046;-51
2022/04/14 09:41:37;;;;;;;29.35;18.20;;;;;;;21.31;28.99;101138.78;4989223;28;20425;-50
2022/04/14 09:44:06;;;;;;;30.48;18.08;;;;;;;21.20;29.37;101141.03;4984104;28;20058;-57
2022/04/14 09:46:33;;;;;;;29.15;17.73;;;;;;;21.15;29.36;101137.75;4992674;28;20479;-59
2022/04/14 09:49:03;;;;;;;27.70;18.25;;;;;;;21.04;29.46;101124.22;4982222;28;20483;-59
2022/04/14 09:51:30;;;;;;;26.67;18.05;;;;;;;20.91;29.75;101130.97;4986721;28;20114;-56
2022/04/14 09:54:04;;;;;;;31.35;19.00;;;;;;;20.84;30.28;101126.91;4990851;28;20046;-59
2022/04/14 09:56:41;;;;;;;26.23;16.55;;;;;;;20.80;30.36;101137.53;4993104;28;20054;-59
2022/04/14 09:59:08;;;;;;;26.90;18.13;;;;;;;20.77;30.30;101124.50;4988056;28;20057;-59
2022/04/14 10:01:35;;;;;;;28.45;17.52;;;;;;;20.75;30.96;101129.00;4991964;28;20050;-59
2022/04/14 10:04:01;;;;;;;41.35;18.95;;;;;;;20.70;30.98;101125.72;4988091;28;20177;-54
2022/04/14 10:06:29;;;;;;;29.00;17.70;;;;;;;20.73;30.84;101129.97;4989321;28;20097;-52
2022/04/14 10:08:55;;;;;;;31.80;17.98;;;;;;;20.77;30.81;101121.88;4983919;28;20050;-54
2022/04/14 10:11:25;;;;;;;29.38;18.25;;;;;;;20.78;31.18;101118.31;4993071;28;20062;-52
2022/04/14 10:13:53;;;;;;;26.67;17.83;;;;;;;20.78;31.12;101113.03;4991462;28;20153;-59
2022/04/14 10:16:23;;;;;;;28.40;18.17;;;;;;;20.86;31.06;101119.78;4987237;28;20062;-62
2022/04/14 10:18:52;;;;;;;32.28;18.50;;;;;;;20.91;31.17;101123.91;4989815;28;20077;-61
2022/04/14 10:21:20;;;;;;;27.92;18.27;;;;;;;20.93;30.89;101121.22;4988296;28;20051;-59
2022/04/14 10:23:48;;;;;;;28.27;18.30;;;;;;;20.97;30.75;101123.63;4993592;28;20050;-59
2022/04/14 10:26:15;;;;;;;31.40;18.92;;;;;;;21.04;30.75;101124.22;4987091;28;20402;-61
2022/04/14 10:28:45;;;;;;;33.53;18.10;;;;;;;21.16;30.74;101134.19;4992628;28;20518;-53
2022/04/14 10:31:13;;;;;;;32.97;19.55;;;;;;;21.24;30.86;101132.09;4992898;28;20050;-55
2022/04/14 10:33:42;;;;;;;30.13;18.45;;;;;;;21.31;30.74;101128.22;4993033;28;20058;-59
2022/04/14 10:36:08;;;;;;;24.55;17.13;;;;;;;21.34;30.43;101120.22;4993324;28;20066;-60
2022/04/14 10:38:37;;;;;;;33.72;19.77;;;;;;;21.35;30.76;101127.19;4993038;28;20053;-58
2022/04/14 10:41:12;;;;;;;39.67;19.35;;;;;;;21.39;30.65;101125.28;4993102;28;20050;-56
2022/04/14 10:43:42;;;;;;;30.30;19.08;;;;;;;21.37;30.66;101127.97;4984138;28;20065;-57
2022/04/14 10:46:09;;;;;;;35.22;18.17;;;;;;;21.33;30.40;101126.41;4991610;28;20042;-56
2022/04/14 10:48:39;;;;;;;34.65;20.33;;;;;;;21.34;30.99;101128.13;4996162;28;20054;-57
2022/04/14 10:51:27;;;;;;;27.15;16.58;;;;;;;21.37;30.78;101130.63;4995431;28;20393;-57
2022/04/14 10:53:59;;;;;;;33.35;18.52;;;;;;;21.37;30.98;101127.97;4989013;28;20058;-56
2022/04/14 10:56:44;;;;;;;27.90;16.90;;;;;;;21.36;30.42;101131.53;4995084;28;20427;-54
2022/04/14 10:59:12;;;;;;;60.30;21.02;;;;;;;21.43;30.92;101129.47;4984177;28;20058;-57
2022/04/14 11:02:04;;;;;;;32.50;19.27;;;;;;;21.51;30.76;101134.38;4996463;28;20511;-57
2022/04/14 11:04:51;;;;;;;30.08;18.23;;;;;;;21.57;30.87;101132.31;4995688;28;20053;-55
2022/04/14 11:07:20;;;;;;;31.70;18.48;;;;;;;21.67;30.83;101140.63;4990524;28;20047;-55
2022/04/14 11:09:55;;;;;;;24.77;17.75;;;;;;;21.69;30.69;101138.78;4991936;28;20065;-58
2022/04/14 11:12:23;;;;;;;27.35;17.20;;;;;;;21.77;30.53;101139.25;4996497;28;20058;-57
2022/04/14 11:14:52;;;;;;;24.20;17.63;;;;;;;21.84;30.54;101138.03;4996198;28;20383;-57
2022/04/14 11:17:48;;;;;;;31.27;18.23;;;;;;;21.87;30.78;101137.91;4996180;28;20058;-59
2022/04/14 11:20:19;;;;;;;24.33;15.90;;;;;;;21.90;30.55;101137.75;4994617;28;20109;-58
2022/04/14 11:23:06;;;;;;;24.63;15.15;;;;;;;22.02;30.16;101146.84;4996234;28;20062;-54
2022/04/14 11:25:46;;;;;;;30.30;16.00;;;;;;;22.11;30.01;101140.28;4996247;28;20065;-55